sensor_id;sensor_type;location;lat;lon;timestamp;pressure;altitude;pressure_sealevel;temperature;humidity
41254;BME280;26987;59.928;30.306;2023-07-28T00:01:44;100113.13;;;14.35;90.62
41254;BME280;26987;59.928;30.306;2023-07-28T00:04:12;100114.81;;;14.42;89.97
41254;BME280;26987;59.928;30.306;2023-07-28T00:06:39;100112.13;;;14.42;90.47
41254;BME280;26987;59.928;30.306;2023-07-28T00:09:07;100112.13;;;14.42;90.83
41254;BME280;26987;59.928;30.306;2023-07-28T00:11:35;100102.16;;;14.42;91.54
41254;BME280;26987;59.928;30.306;2023-07-28T00:14:04;100100.84;;;14.45;91.78
41254;BME280;26987;59.928;30.306;2023-07-28T00:16:32;100089.75;;;14.41;92.57
41254;BME280;26987;59.928;30.306;2023-07-28T00:19:00;100093.50;;;14.40;93.35
41254;BME280;26987;59.928;30.306;2023-07-28T00:21:28;100088.03;;;14.35;93.75
41254;BME280;26987;59.928;30.306;2023-07-28T00:23:56;100079.31;;;14.28;94.30
41254;BME280;26987;59.928;30.306;2023-07-28T00:26:24;100079.38;;;14.33;95.22
41254;BME280;26987;59.928;30.306;2023-07-28T00:28:51;100080.22;;;14.33;95.57
41254;BME280;26987;59.928;30.306;2023-07-28T00:31:20;100070.47;;;14.32;96.04
41254;BME280;26987;59.928;30.306;2023-07-28T00:33:48;100064.78;;;14.29;96.17
41254;BME280;26987;59.928;30.306;2023-07-28T00:36:16;100057.75;;;14.28;95.76
41254;BME280;26987;59.928;30.306;2023-07-28T00:38:44;100011.06;;;14.05;97.15
41254;BME280;26987;59.928;30.306;2023-07-28T00:41:12;100041.50;;;14.22;97.96
41254;BME280;26987;59.928;30.306;2023-07-28T00:43:39;100013.75;;;14.05;97.83
41254;BME280;26987;59.928;30.306;2023-07-28T00:46:08;100043.59;;;14.20;97.62
41254;BME280;26987;59.928;30.306;2023-07-28T00:48:37;100030.13;;;14.20;98.71
41254;BME280;26987;59.928;30.306;2023-07-28T00:51:07;100029.25;;;14.15;98.71
41254;BME280;26987;59.928;30.306;2023-07-28T00:53:35;100039.00;;;14.16;98.36
41254;BME280;26987;59.928;30.306;2023-07-28T00:56:04;100034.41;;;14.16;98.74
41254;BME280;26987;59.928;30.306;2023-07-28T00:58:33;100035.47;;;14.15;96.75
41254;BME280;26987;59.928;30.306;2023-07-28T01:01:01;100037.59;;;14.13;96.86
41254;BME280;26987;59.928;30.306;2023-07-28T01:03:29;100033.25;;;14.12;96.14
41254;BME280;26987;59.928;30.306;2023-07-28T01:06:10;100037.34;;;14.15;95.44
41254;BME280;26987;59.928;30.306;2023-07-28T01:08:46;100029.97;;;14.10;96.33
41254;BME280;26987;59.928;30.306;2023-07-28T01:11:17;100020.84;;;14.11;95.61
41254;BME280;26987;59.928;30.306;2023-07-28T01:13:45;99982.91;;;13.95;94.93
41254;BME280;26987;59.928;30.306;2023-07-28T01:16:13;99974.47;;;13.92;94.44
41254;BME280;26987;59.928;30.306;2023-07-28T01:18:42;99989.31;;;14.11;94.33
41254;BME280;26987;59.928;30.306;2023-07-28T01:21:25;99995.66;;;14.22;93.79
41254;BME280;26987;59.928;30.306;2023-07-28T01:24:01;100009.47;;;14.26;93.69
41254;BME280;26987;59.928;30.306;2023-07-28T01:26:36;100004.31;;;14.24;94.24
41254;BME280;26987;59.928;30.306;2023-07-28T01:29:04;99997.59;;;14.27;93.89
41254;BME280;26987;59.928;30.306;2023-07-28T01:31:33;100002.25;;;14.32;93.91
41254;BME280;26987;59.928;30.306;2023-07-28T01:34:01;100001.69;;;14.30;94.12
41254;BME280;26987;59.928;30.306;2023-07-28T01:36:28;100007.16;;;14.35;94.17
41254;BME280;26987;59.928;30.306;2023-07-28T01:38:56;100001.75;;;14.35;94.10
41254;BME280;26987;59.928;30.306;2023-07-28T01:41:24;99994.16;;;14.32;94.93
41254;BME280;26987;59.928;30.306;2023-07-28T01:43:53;100000.69;;;14.36;94.99
41254;BME280;26987;59.928;30.306;2023-07-28T01:46:22;99996.13;;;14.36;95.29
41254;BME280;26987;59.928;30.306;2023-07-28T01:48:50;99993.97;;;14.38;95.99
41254;BME280;26987;59.928;30.306;2023-07-28T01:51:18;99998.88;;;14.42;95.30
41254;BME280;26987;59.928;30.306;2023-07-28T01:53:45;99998.69;;;14.48;96.81
41254;BME280;26987;59.928;30.306;2023-07-28T01:56:13;100001.31;;;14.43;96.80
41254;BME280;26987;59.928;30.306;2023-07-28T01:58:42;100011.59;;;14.46;97.82
41254;BME280;26987;59.928;30.306;2023-07-28T02:01:13;100010.22;;;14.44;98.63
41254;BME280;26987;59.928;30.306;2023-07-28T02:03:41;99998.88;;;14.42;99.44
41254;BME280;26987;59.928;30.306;2023-07-28T02:06:09;99988.81;;;14.37;99.30
41254;BME280;26987;59.928;30.306;2023-07-28T02:08:37;99979.06;;;14.31;99.29
41254;BME280;26987;59.928;30.306;2023-07-28T02:11:05;99975.72;;;14.23;100.00
41254;BME280;26987;59.928;30.306;2023-07-28T02:13:34;99981.94;;;14.24;100.00
41254;BME280;26987;59.928;30.306;2023-07-28T02:16:04;99953.59;;;13.99;100.00
41254;BME280;26987;59.928;30.306;2023-07-28T02:18:33;99973.13;;;14.11;100.00
41254;BME280;26987;59.928;30.306;2023-07-28T02:21:01;99984.25;;;14.15;100.00
41254;BME280;26987;59.928;30.306;2023-07-28T02:23:29;99994.59;;;14.23;100.00
41254;BME280;26987;59.928;30.306;2023-07-28T02:25:57;99991.25;;;14.16;100.00
41254;BME280;26987;59.928;30.306;2023-07-28T02:28:25;99990.50;;;14.21;100.00
41254;BME280;26987;59.928;30.306;2023-07-28T02:30:53;99974.09;;;14.22;100.00
41254;BME280;26987;59.928;30.306;2023-07-28T02:33:21;99974.00;;;14.17;100.00
41254;BME280;26987;59.928;30.306;2023-07-28T02:35:50;99964.38;;;14.21;100.00
41254;BME280;26987;59.928;30.306;2023-07-28T02:38:18;99965.94;;;14.17;100.00
41254;BME280;26987;59.928;30.306;2023-07-28T02:40:45;99946.31;;;14.22;100.00
41254;BME280;26987;59.928;30.306;2023-07-28T02:43:13;99941.16;;;14.20;100.00
41254;BME280;26987;59.928;30.306;2023-07-28T02:45:42;99944.63;;;14.16;100.00
41254;BME280;26987;59.928;30.306;2023-07-28T02:48:09;99933.94;;;14.04;100.00
41254;BME280;26987;59.928;30.306;2023-07-28T02:50:37;99938.84;;;14.07;100.00
41254;BME280;26987;59.928;30.306;2023-07-28T02:53:06;99949.63;;;14.07;100.00
41254;BME280;26987;59.928;30.306;2023-07-28T02:55:41;99949.13;;;14.10;100.00
41254;BME280;26987;59.928;30.306;2023-07-28T02:58:09;99920.34;;;13.93;100.00
41254;BME280;26987;59.928;30.306;2023-07-28T03:00:37;99941.28;;;14.08;100.00
41254;BME280;26987;59.928;30.306;2023-07-28T03:03:05;99944.22;;;14.07;100.00
41254;BME280;26987;59.928;30.306;2023-07-28T03:05:34;99952.41;;;14.12;100.00
41254;BME280;26987;59.928;30.306;2023-07-28T03:08:18;99943.22;;;14.13;100.00
41254;BME280;26987;59.928;30.306;2023-07-28T03:10:46;99936.72;;;14.09;100.00
41254;BME280;26987;59.928;30.306;2023-07-28T03:13:13;99940.53;;;14.13;100.00
41254;BME280;26987;59.928;30.306;2023-07-28T03:15:41;99933.53;;;14.12;100.00
41254;BME280;26987;59.928;30.306;2023-07-28T03:18:09;99924.25;;;14.03;100.00
41254;BME280;26987;59.928;30.306;2023-07-28T03:20:37;99930.00;;;14.11;100.00
41254;BME280;26987;59.928;30.306;2023-07-28T03:23:05;99914.84;;;14.05;100.00
41254;BME280;26987;59.928;30.306;2023-07-28T03:25:34;99925.44;;;14.12;100.00
41254;BME280;26987;59.928;30.306;2023-07-28T03:28:02;99912.53;;;14.14;100.00
41254;BME280;26987;59.928;30.306;2023-07-28T03:30:30;99904.06;;;14.28;100.00
41254;BME280;26987;59.928;30.306;2023-07-28T03:32:58;99913.28;;;14.32;100.00
41254;BME280;26987;59.928;30.306;2023-07-28T03:35:26;99910.63;;;14.37;100.00
41254;BME280;26987;59.928;30.306;2023-07-28T03:38:03;99893.16;;;14.40;100.00
41254;BME280;26987;59.928;30.306;2023-07-28T03:40:31;99898.81;;;14.43;100.00
41254;BME280;26987;59.928;30.306;2023-07-28T03:43:01;99892.91;;;14.41;100.00
41254;BME280;26987;59.928;30.306;2023-07-28T03:45:29;99889.63;;;14.39;100.00
41254;BME280;26987;59.928;30.306;2023-07-28T03:47:57;99890.44;;;14.40;100.00
41254;BME280;26987;59.928;30.306;2023-07-28T03:50:25;99890.75;;;14.43;100.00
41254;BME280;26987;59.928;30.306;2023-07-28T03:52:54;99888.63;;;14.45;100.00
41254;BME280;26987;59.928;30.306;2023-07-28T03:55:22;99888.78;;;14.38;100.00
41254;BME280;26987;59.928;30.306;2023-07-28T03:57:50;99898.56;;;14.45;100.00
41254;BME280;26987;59.928;30.306;2023-07-28T04:00:19;99895.88;;;14.45;100.00
41254;BME280;26987;59.928;30.306;2023-07-28T04:02:47;99893.50;;;14.48;100.00
41254;BME280;26987;59.928;30.306;2023-07-28T04:05:15;99895.44;;;14.53;100.00
41254;BME280;26987;59.928;30.306;2023-07-28T04:07:43;99899.75;;;14.54;100.00
41254;BME280;26987;59.928;30.306;2023-07-28T04:10:11;99881.44;;;14.56;100.00
41254;BME280;26987;59.928;30.306;2023-07-28T04:12:39;99883.31;;;14.56;100.00
41254;BME280;26987;59.928;30.306;2023-07-28T04:15:08;99878.28;;;14.65;100.00
41254;BME280;26987;59.928;30.306;2023-07-28T04:17:37;99878.34;;;14.70;100.00
41254;BME280;26987;59.928;30.306;2023-07-28T04:20:07;99879.72;;;14.72;100.00
41254;BME280;26987;59.928;30.306;2023-07-28T04:22:35;99869.34;;;14.64;100.00
41254;BME280;26987;59.928;30.306;2023-07-28T04:25:04;99878.03;;;14.66;100.00
41254;BME280;26987;59.928;30.306;2023-07-28T04:27:33;99872.94;;;14.70;100.00
41254;BME280;26987;59.928;30.306;2023-07-28T04:30:04;99865.88;;;14.63;100.00
41254;BME280;26987;59.928;30.306;2023-07-28T04:32:33;99866.13;;;14.62;100.00
41254;BME280;26987;59.928;30.306;2023-07-28T04:35:09;99849.09;;;14.56;100.00
41254;BME280;26987;59.928;30.306;2023-07-28T04:37:46;99868.59;;;14.69;100.00
41254;BME280;26987;59.928;30.306;2023-07-28T04:40:21;99862.44;;;14.73;100.00
41254;BME280;26987;59.928;30.306;2023-07-28T04:42:49;99859.75;;;14.73;100.00
41254;BME280;26987;59.928;30.306;2023-07-28T04:45:20;99840.81;;;14.68;100.00
41254;BME280;26987;59.928;30.306;2023-07-28T04:47:48;99861.34;;;14.74;100.00
41254;BME280;26987;59.928;30.306;2023-07-28T04:50:17;99856.75;;;14.70;100.00
41254;BME280;26987;59.928;30.306;2023-07-28T04:52:48;99847.84;;;14.69;100.00
41254;BME280;26987;59.928;30.306;2023-07-28T04:55:48;99836.72;;;14.60;100.00
41254;BME280;26987;59.928;30.306;2023-07-28T04:58:16;99829.41;;;14.61;100.00
41254;BME280;26987;59.928;30.306;2023-07-28T05:00:48;99823.91;;;14.50;100.00
41254;BME280;26987;59.928;30.306;2023-07-28T05:03:15;99821.22;;;14.50;100.00
41254;BME280;26987;59.928;30.306;2023-07-28T05:05:51;99838.97;;;14.74;100.00
41254;BME280;26987;59.928;30.306;2023-07-28T05:08:19;99832.78;;;14.46;100.00
41254;BME280;26987;59.928;30.306;2023-07-28T05:10:47;99777.91;;;14.02;100.00
41254;BME280;26987;59.928;30.306;2023-07-28T05:13:15;99837.78;;;14.32;100.00
41254;BME280;26987;59.928;30.306;2023-07-28T05:15:51;99832.56;;;14.25;100.00
41254;BME280;26987;59.928;30.306;2023-07-28T05:18:38;99836.66;;;14.28;100.00
41254;BME280;26987;59.928;30.306;2023-07-28T05:21:30;99829.63;;;14.27;100.00
41254;BME280;26987;59.928;30.306;2023-07-28T05:23:58;99826.81;;;14.16;100.00
41254;BME280;26987;59.928;30.306;2023-07-28T05:26:25;99840.38;;;14.21;100.00
41254;BME280;26987;59.928;30.306;2023-07-28T05:28:53;99818.56;;;14.23;100.00
41254;BME280;26987;59.928;30.306;2023-07-28T05:31:21;99816.16;;;14.27;100.00
41254;BME280;26987;59.928;30.306;2023-07-28T05:33:49;99812.94;;;14.30;100.00
41254;BME280;26987;59.928;30.306;2023-07-28T05:36:20;99814.63;;;14.36;100.00
41254;BME280;26987;59.928;30.306;2023-07-28T05:38:51;99825.97;;;14.38;100.00
41254;BME280;26987;59.928;30.306;2023-07-28T05:41:20;99826.28;;;14.42;100.00
41254;BME280;26987;59.928;30.306;2023-07-28T05:43:47;99822.78;;;14.41;100.00
41254;BME280;26987;59.928;30.306;2023-07-28T05:46:15;99825.47;;;14.41;100.00
41254;BME280;26987;59.928;30.306;2023-07-28T05:48:44;99808.66;;;14.34;100.00
41254;BME280;26987;59.928;30.306;2023-07-28T05:51:12;99823.88;;;14.45;100.00
41254;BME280;26987;59.928;30.306;2023-07-28T05:53:40;99822.28;;;14.44;100.00
41254;BME280;26987;59.928;30.306;2023-07-28T05:56:10;99812.03;;;14.46;100.00
41254;BME280;26987;59.928;30.306;2023-07-28T05:58:38;99814.72;;;14.46;100.00
41254;BME280;26987;59.928;30.306;2023-07-28T06:01:05;99803.91;;;14.41;100.00
41254;BME280;26987;59.928;30.306;2023-07-28T06:04:09;99800.63;;;14.39;100.00
41254;BME280;26987;59.928;30.306;2023-07-28T06:06:43;99811.94;;;14.36;100.00
41254;BME280;26987;59.928;30.306;2023-07-28T06:09:13;99801.66;;;14.33;100.00
41254;BME280;26987;59.928;30.306;2023-07-28T06:11:44;99778.13;;;14.23;100.00
41254;BME280;26987;59.928;30.306;2023-07-28T06:14:12;99806.19;;;14.27;100.00
41254;BME280;26987;59.928;30.306;2023-07-28T06:16:40;99801.63;;;14.28;100.00
41254;BME280;26987;59.928;30.306;2023-07-28T06:19:08;99810.22;;;14.24;100.00
41254;BME280;26987;59.928;30.306;2023-07-28T06:21:37;99793.97;;;14.19;100.00
41254;BME280;26987;59.928;30.306;2023-07-28T06:24:05;99788.31;;;14.21;100.00
41254;BME280;26987;59.928;30.306;2023-07-28T06:26:33;99796.75;;;14.30;100.00
41254;BME280;26987;59.928;30.306;2023-07-28T06:29:02;99786.47;;;14.21;100.00
41254;BME280;26987;59.928;30.306;2023-07-28T06:31:30;99804.84;;;14.30;100.00
41254;BME280;26987;59.928;30.306;2023-07-28T06:33:58;99788.13;;;14.28;100.00
41254;BME280;26987;59.928;30.306;2023-07-28T06:36:26;99777.84;;;14.24;100.00
41254;BME280;26987;59.928;30.306;2023-07-28T06:38:54;99790.34;;;14.36;100.00
41254;BME280;26987;59.928;30.306;2023-07-28T06:41:22;99779.06;;;14.39;100.00
41254;BME280;26987;59.928;30.306;2023-07-28T06:43:57;99779.13;;;14.44;100.00
41254;BME280;26987;59.928;30.306;2023-07-28T06:46:27;99778.03;;;14.45;100.00
41254;BME280;26987;59.928;30.306;2023-07-28T06:48:54;99763.72;;;14.40;100.00
41254;BME280;26987;59.928;30.306;2023-07-28T06:51:22;99772.41;;;14.47;100.00
41254;BME280;26987;59.928;30.306;2023-07-28T06:53:50;99769.19;;;14.50;100.00
41254;BME280;26987;59.928;30.306;2023-07-28T06:56:18;99768.16;;;14.56;100.00
41254;BME280;26987;59.928;30.306;2023-07-28T06:58:46;99773.00;;;14.59;100.00
41254;BME280;26987;59.928;30.306;2023-07-28T07:01:14;99760.94;;;14.67;100.00
41254;BME280;26987;59.928;30.306;2023-07-28T07:03:43;99762.34;;;14.75;100.00
41254;BME280;26987;59.928;30.306;2023-07-28T07:06:11;99763.78;;;14.83;100.00
41254;BME280;26987;59.928;30.306;2023-07-28T07:08:39;99760.00;;;14.84;100.00
41254;BME280;26987;59.928;30.306;2023-07-28T07:11:07;99767.00;;;14.80;100.00
41254;BME280;26987;59.928;30.306;2023-07-28T07:13:35;99763.78;;;14.83;100.00
41254;BME280;26987;59.928;30.306;2023-07-28T07:16:03;99756.53;;;14.83;100.00
41254;BME280;26987;59.928;30.306;2023-07-28T07:18:31;99755.75;;;14.93;100.00
41254;BME280;26987;59.928;30.306;2023-07-28T07:21:02;99745.59;;;15.06;100.00
41254;BME280;26987;59.928;30.306;2023-07-28T07:23:32;99736.44;;;15.12;100.00
41254;BME280;26987;59.928;30.306;2023-07-28T07:26:00;99741.66;;;15.24;100.00
41254;BME280;26987;59.928;30.306;2023-07-28T07:28:27;99740.84;;;15.29;100.00
41254;BME280;26987;59.928;30.306;2023-07-28T07:30:55;99744.91;;;15.31;100.00
41254;BME280;26987;59.928;30.306;2023-07-28T07:33:23;99750.31;;;15.31;100.00
41254;BME280;26987;59.928;30.306;2023-07-28T07:35:52;99745.19;;;15.30;100.00
41254;BME280;26987;59.928;30.306;2023-07-28T07:38:21;99742.94;;;15.16;100.00
41254;BME280;26987;59.928;30.306;2023-07-28T07:40:49;99742.94;;;15.16;100.00
41254;BME280;26987;59.928;30.306;2023-07-28T07:43:17;99738.63;;;15.15;100.00
41254;BME280;26987;59.928;30.306;2023-07-28T07:45:46;99741.84;;;15.12;100.00
41254;BME280;26987;59.928;30.306;2023-07-28T07:48:16;99757.53;;;15.15;100.00
41254;BME280;26987;59.928;30.306;2023-07-28T07:50:44;99751.53;;;15.08;100.00
41254;BME280;26987;59.928;30.306;2023-07-28T07:53:12;99744.22;;;15.03;100.00
41254;BME280;26987;59.928;30.306;2023-07-28T07:55:41;99742.84;;;15.00;100.00
41254;BME280;26987;59.928;30.306;2023-07-28T07:58:12;99747.78;;;15.09;100.00
41254;BME280;26987;59.928;30.306;2023-07-28T08:00:40;99648.00;;;14.38;100.00
41254;BME280;26987;59.928;30.306;2023-07-28T08:03:10;99744.78;;;15.05;100.00
41254;BME280;26987;59.928;30.306;2023-07-28T08:05:38;99755.25;;;14.96;99.94
41254;BME280;26987;59.928;30.306;2023-07-28T08:08:05;99737.38;;;14.85;99.90
41254;BME280;26987;59.928;30.306;2023-07-28T08:10:34;99742.94;;;14.73;100.00
41254;BME280;26987;59.928;30.306;2023-07-28T08:13:03;99735.00;;;14.61;100.00
41254;BME280;26987;59.928;30.306;2023-07-28T08:15:31;99738.81;;;14.65;100.00
41254;BME280;26987;59.928;30.306;2023-07-28T08:17:59;99738.41;;;14.79;100.00
41254;BME280;26987;59.928;30.306;2023-07-28T08:20:27;99736.97;;;14.71;100.00
41254;BME280;26987;59.928;30.306;2023-07-28T08:22:55;99742.06;;;14.67;100.00
41254;BME280;26987;59.928;30.306;2023-07-28T08:25:22;99733.63;;;14.58;100.00
41254;BME280;26987;59.928;30.306;2023-07-28T08:27:51;99746.34;;;14.63;100.00
41254;BME280;26987;59.928;30.306;2023-07-28T08:30:20;99741.47;;;14.60;100.00
41254;BME280;26987;59.928;30.306;2023-07-28T08:32:48;99739.84;;;14.59;100.00
41254;BME280;26987;59.928;30.306;2023-07-28T08:35:16;99737.94;;;14.59;100.00
41254;BME280;26987;59.928;30.306;2023-07-28T08:37:44;99736.81;;;14.50;100.00
41254;BME280;26987;59.928;30.306;2023-07-28T08:40:12;99740.56;;;14.49;100.00
41254;BME280;26987;59.928;30.306;2023-07-28T08:42:40;99745.94;;;14.44;99.82
41254;BME280;26987;59.928;30.306;2023-07-28T08:45:09;99747.03;;;14.43;99.23
41254;BME280;26987;59.928;30.306;2023-07-28T08:47:38;99752.34;;;14.37;99.84
41254;BME280;26987;59.928;30.306;2023-07-28T08:50:06;99755.31;;;14.36;99.81
41254;BME280;26987;59.928;30.306;2023-07-28T08:52:34;99748.81;;;14.32;99.71
41254;BME280;26987;59.928;30.306;2023-07-28T08:55:02;99754.22;;;14.37;99.05
41254;BME280;26987;59.928;30.306;2023-07-28T08:57:30;99746.66;;;14.34;100.00
41254;BME280;26987;59.928;30.306;2023-07-28T08:59:58;99742.84;;;14.30;99.43
41254;BME280;26987;59.928;30.306;2023-07-28T09:02:27;99743.44;;;14.37;99.16
41254;BME280;26987;59.928;30.306;2023-07-28T09:04:56;99749.97;;;14.41;98.82
41254;BME280;26987;59.928;30.306;2023-07-28T09:07:24;99753.81;;;14.50;98.91
41254;BME280;26987;59.928;30.306;2023-07-28T09:09:59;99696.91;;;14.14;98.62
41254;BME280;26987;59.928;30.306;2023-07-28T09:12:27;99756.22;;;14.47;97.02
41254;BME280;26987;59.928;30.306;2023-07-28T09:14:56;99755.38;;;14.41;96.70
41254;BME280;26987;59.928;30.306;2023-07-28T09:17:24;99754.03;;;14.44;97.52
41254;BME280;26987;59.928;30.306;2023-07-28T09:19:52;99758.91;;;14.47;97.02
41254;BME280;26987;59.928;30.306;2023-07-28T09:22:22;99753.25;;;14.48;96.88
41254;BME280;26987;59.928;30.306;2023-07-28T09:24:51;99744.66;;;14.52;96.47
41254;BME280;26987;59.928;30.306;2023-07-28T09:27:20;99755.88;;;14.76;96.02
41254;BME280;26987;59.928;30.306;2023-07-28T09:29:49;99758.47;;;14.93;96.37
41254;BME280;26987;59.928;30.306;2023-07-28T09:32:26;99761.28;;;15.14;95.89
41254;BME280;26987;59.928;30.306;2023-07-28T09:35:06;99761.28;;;15.14;96.78
41254;BME280;26987;59.928;30.306;2023-07-28T09:37:39;99729.03;;;14.92;96.54
41254;BME280;26987;59.928;30.306;2023-07-28T09:40:08;99758.38;;;15.26;97.34
41254;BME280;26987;59.928;30.306;2023-07-28T09:42:38;99739.78;;;15.30;97.22
41254;BME280;26987;59.928;30.306;2023-07-28T09:45:07;99727.94;;;15.36;97.07
41254;BME280;26987;59.928;30.306;2023-07-28T09:47:36;99741.72;;;15.50;96.48
41254;BME280;26987;59.928;30.306;2023-07-28T09:50:07;99725.25;;;15.46;96.58
41254;BME280;26987;59.928;30.306;2023-07-28T09:52:42;99725.00;;;15.53;97.00
41254;BME280;26987;59.928;30.306;2023-07-28T09:55:10;99748.59;;;15.79;96.90
41254;BME280;26987;59.928;30.306;2023-07-28T09:57:43;99716.13;;;15.68;96.62
41254;BME280;26987;59.928;30.306;2023-07-28T10:00:14;99728.13;;;15.98;97.36
41254;BME280;26987;59.928;30.306;2023-07-28T10:02:43;99732.16;;;16.01;96.78
41254;BME280;26987;59.928;30.306;2023-07-28T10:05:12;99745.19;;;16.20;98.16
41254;BME280;26987;59.928;30.306;2023-07-28T10:07:44;99749.25;;;16.43;97.76
41254;BME280;26987;59.928;30.306;2023-07-28T10:10:13;99746.53;;;16.59;96.92
41254;BME280;26987;59.928;30.306;2023-07-28T10:12:46;99753.56;;;16.81;96.77
41254;BME280;26987;59.928;30.306;2023-07-28T10:15:15;99750.31;;;16.89;95.19
41254;BME280;26987;59.928;30.306;2023-07-28T10:17:45;99753.00;;;16.89;92.90
41254;BME280;26987;59.928;30.306;2023-07-28T10:20:30;99715.97;;;16.79;92.75
41254;BME280;26987;59.928;30.306;2023-07-28T10:23:07;99687.03;;;16.54;92.86
41254;BME280;26987;59.928;30.306;2023-07-28T10:25:36;99757.88;;;16.76;92.86
41254;BME280;26987;59.928;30.306;2023-07-28T10:28:06;99753.88;;;16.69;94.59
41254;BME280;26987;59.928;30.306;2023-07-28T10:30:38;99768.44;;;16.78;94.89
41254;BME280;26987;59.928;30.306;2023-07-28T10:33:06;99773.34;;;16.66;94.59
41254;BME280;26987;59.928;30.306;2023-07-28T10:35:47;99771.44;;;16.71;95.65
41254;BME280;26987;59.928;30.306;2023-07-28T10:38:40;99775.22;;;16.65;97.00
41254;BME280;26987;59.928;30.306;2023-07-28T10:41:14;99761.72;;;16.34;98.66
41254;BME280;26987;59.928;30.306;2023-07-28T10:43:42;99767.09;;;16.29;98.80
41254;BME280;26987;59.928;30.306;2023-07-28T10:46:11;99770.34;;;16.36;98.62
41254;BME280;26987;59.928;30.306;2023-07-28T10:48:42;99762.50;;;16.39;100.00
41254;BME280;26987;59.928;30.306;2023-07-28T10:51:10;99762.78;;;16.43;99.98
41254;BME280;26987;59.928;30.306;2023-07-28T10:53:40;99767.63;;;16.36;99.29
41254;BME280;26987;59.928;30.306;2023-07-28T10:56:08;99762.22;;;16.25;99.73
41254;BME280;26987;59.928;30.306;2023-07-28T10:58:37;99756.28;;;16.23;100.00
41254;BME280;26987;59.928;30.306;2023-07-28T11:01:05;99763.84;;;16.21;100.00
41254;BME280;26987;59.928;30.306;2023-07-28T11:03:33;99760.34;;;16.16;100.00
41254;BME280;26987;59.928;30.306;2023-07-28T11:06:03;99772.25;;;16.30;100.00
41254;BME280;26987;59.928;30.306;2023-07-28T11:08:32;99753.84;;;16.37;99.69
41254;BME280;26987;59.928;30.306;2023-07-28T11:11:04;99753.31;;;16.51;99.43
41254;BME280;26987;59.928;30.306;2023-07-28T11:13:33;99746.56;;;16.64;99.61
41254;BME280;26987;59.928;30.306;2023-07-28T11:16:01;99753.03;;;16.73;98.70
41254;BME280;26987;59.928;30.306;2023-07-28T11:18:29;99753.00;;;16.89;97.21
41254;BME280;26987;59.928;30.306;2023-07-28T11:20:56;99753.53;;;17.01;96.64
41254;BME280;26987;59.928;30.306;2023-07-28T11:23:25;99757.00;;;17.28;96.20
41254;BME280;26987;59.928;30.306;2023-07-28T11:25:53;99749.13;;;17.42;94.65
41254;BME280;26987;59.928;30.306;2023-07-28T11:28:23;99749.88;;;17.53;94.00
41254;BME280;26987;59.928;30.306;2023-07-28T11:30:51;99749.06;;;17.52;94.02
41254;BME280;26987;59.928;30.306;2023-07-28T11:33:19;99754.72;;;17.56;94.21
41254;BME280;26987;59.928;30.306;2023-07-28T11:35:47;99754.44;;;17.63;93.60
41254;BME280;26987;59.928;30.306;2023-07-28T11:38:15;99759.03;;;17.62;94.21
41254;BME280;26987;59.928;30.306;2023-07-28T11:40:43;99758.81;;;17.59;94.53
41254;BME280;26987;59.928;30.306;2023-07-28T11:43:11;99768.81;;;17.63;94.45
41254;BME280;26987;59.928;30.306;2023-07-28T11:45:41;99773.69;;;17.67;93.68
41254;BME280;26987;59.928;30.306;2023-07-28T11:48:09;99770.75;;;17.52;93.54
41254;BME280;26987;59.928;30.306;2023-07-28T11:50:38;99772.41;;;17.48;91.70
41254;BME280;26987;59.928;30.306;2023-07-28T11:53:08;99750.84;;;17.12;89.68
41254;BME280;26987;59.928;30.306;2023-07-28T11:55:36;99776.81;;;17.18;90.04
41254;BME280;26987;59.928;30.306;2023-07-28T11:58:05;99788.72;;;17.22;89.46
41254;BME280;26987;59.928;30.306;2023-07-28T12:00:35;99799.56;;;17.22;89.42
41254;BME280;26987;59.928;30.306;2023-07-28T12:03:06;99784.94;;;17.13;87.92
41254;BME280;26987;59.928;30.306;2023-07-28T12:05:37;99781.72;;;17.11;86.96
41254;BME280;26987;59.928;30.306;2023-07-28T12:08:05;99773.56;;;17.16;86.88
41254;BME280;26987;59.928;30.306;2023-07-28T12:10:34;99781.06;;;17.45;86.18
41254;BME280;26987;59.928;30.306;2023-07-28T12:13:05;99793.44;;;17.67;85.87
41254;BME280;26987;59.928;30.306;2023-07-28T12:15:33;99787.91;;;17.93;85.04
41254;BME280;26987;59.928;30.306;2023-07-28T12:18:10;99779.09;;;18.17;84.84
41254;BME280;26987;59.928;30.306;2023-07-28T12:20:40;99775.34;;;18.08;85.49
41254;BME280;26987;59.928;30.306;2023-07-28T12:23:13;99768.22;;;17.72;86.63
41254;BME280;26987;59.928;30.306;2023-07-28T12:25:42;99775.06;;;17.59;87.91
41254;BME280;26987;59.928;30.306;2023-07-28T12:28:11;99745.66;;;17.21;89.20
41254;BME280;26987;59.928;30.306;2023-07-28T12:30:39;99782.47;;;17.22;90.48
41254;BME280;26987;59.928;30.306;2023-07-28T12:33:08;99775.19;;;17.07;92.56
41254;BME280;26987;59.928;30.306;2023-07-28T12:35:36;99786.03;;;16.96;93.31
41254;BME280;26987;59.928;30.306;2023-07-28T12:38:05;99783.06;;;16.87;94.82
41254;BME280;26987;59.928;30.306;2023-07-28T12:40:34;99758.97;;;16.70;95.25
41254;BME280;26987;59.928;30.306;2023-07-28T12:43:03;99793.88;;;16.98;93.44
41254;BME280;26987;59.928;30.306;2023-07-28T12:45:31;99772.75;;;16.95;91.26
41254;BME280;26987;59.928;30.306;2023-07-28T12:47:58;99792.78;;;17.20;89.84
41254;BME280;26987;59.928;30.306;2023-07-28T12:50:28;99811.66;;;17.51;88.62
41254;BME280;26987;59.928;30.306;2023-07-28T12:52:57;99813.81;;;17.54;87.13
41254;BME280;26987;59.928;30.306;2023-07-28T12:55:24;99812.41;;;17.67;86.89